sensor_id;sensor_type;location;lat;lon;timestamp;temperature;humidity
12060;DHT22;6091;51.432;6.880;2023-03-24T00:01:22;24.00;36.90
12060;DHT22;6091;51.432;6.880;2023-03-24T00:03:50;23.90;36.80
12060;DHT22;6091;51.432;6.880;2023-03-24T00:06:20;23.90;36.80
12060;DHT22;6091;51.432;6.880;2023-03-24T00:08:52;23.90;36.90
12060;DHT22;6091;51.432;6.880;2023-03-24T00:11:19;23.90;36.90
12060;DHT22;6091;51.432;6.880;2023-03-24T00:13:47;23.90;36.90
12060;DHT22;6091;51.432;6.880;2023-03-24T00:16:18;23.90;36.90
12060;DHT22;6091;51.432;6.880;2023-03-24T00:18:45;23.90;36.90
12060;DHT22;6091;51.432;6.880;2023-03-24T00:21:19;23.90;36.90
12060;DHT22;6091;51.432;6.880;2023-03-24T00:23:52;23.90;36.90
12060;DHT22;6091;51.432;6.880;2023-03-24T00:26:21;23.90;36.90
12060;DHT22;6091;51.432;6.880;2023-03-24T00:28:51;23.90;36.90
12060;DHT22;6091;51.432;6.880;2023-03-24T00:31:20;23.80;36.80
12060;DHT22;6091;51.432;6.880;2023-03-24T00:33:48;23.90;37.00
12060;DHT22;6091;51.432;6.880;2023-03-24T00:36:18;23.80;36.90
12060;DHT22;6091;51.432;6.880;2023-03-24T00:38:47;23.80;36.90
12060;DHT22;6091;51.432;6.880;2023-03-24T00:41:17;23.80;36.90
12060;DHT22;6091;51.432;6.880;2023-03-24T00:43:47;23.80;36.90
12060;DHT22;6091;51.432;6.880;2023-03-24T00:46:17;23.80;36.90
12060;DHT22;6091;51.432;6.880;2023-03-24T00:48:57;23.80;36.90
12060;DHT22;6091;51.432;6.880;2023-03-24T00:51:39;23.80;36.90
12060;DHT22;6091;51.432;6.880;2023-03-24T00:54:09;23.80;36.90
12060;DHT22;6091;51.432;6.880;2023-03-24T00:56:38;23.80;37.00
12060;DHT22;6091;51.432;6.880;2023-03-24T00:59:09;23.70;36.90
12060;DHT22;6091;51.432;6.880;2023-03-24T01:01:39;23.80;37.00
12060;DHT22;6091;51.432;6.880;2023-03-24T01:04:07;23.80;37.00
12060;DHT22;6091;51.432;6.880;2023-03-24T01:06:37;23.80;37.00
12060;DHT22;6091;51.432;6.880;2023-03-24T01:09:06;23.70;37.00
12060;DHT22;6091;51.432;6.880;2023-03-24T01:11:39;23.70;36.90
12060;DHT22;6091;51.432;6.880;2023-03-24T01:14:08;23.70;37.00
12060;DHT22;6091;51.432;6.880;2023-03-24T01:16:36;23.70;37.00
12060;DHT22;6091;51.432;6.880;2023-03-24T01:19:04;23.70;37.00
12060;DHT22;6091;51.432;6.880;2023-03-24T01:21:32;23.70;37.00
12060;DHT22;6091;51.432;6.880;2023-03-24T01:24:00;23.70;37.00
12060;DHT22;6091;51.432;6.880;2023-03-24T01:26:28;23.70;37.00
12060;DHT22;6091;51.432;6.880;2023-03-24T01:28:59;23.70;37.00
12060;DHT22;6091;51.432;6.880;2023-03-24T01:31:26;23.70;37.00
12060;DHT22;6091;51.432;6.880;2023-03-24T01:33:53;23.70;37.00
12060;DHT22;6091;51.432;6.880;2023-03-24T01:36:20;23.70;37.00
12060;DHT22;6091;51.432;6.880;2023-03-24T01:38:47;23.70;37.10
12060;DHT22;6091;51.432;6.880;2023-03-24T01:41:14;23.70;37.00
12060;DHT22;6091;51.432;6.880;2023-03-24T01:43:42;23.70;37.10
12060;DHT22;6091;51.432;6.880;2023-03-24T01:46:20;23.70;37.10
12060;DHT22;6091;51.432;6.880;2023-03-24T01:49:01;23.70;37.20
12060;DHT22;6091;51.432;6.880;2023-03-24T01:51:35;23.70;37.20
12060;DHT22;6091;51.432;6.880;2023-03-24T01:57:12;23.70;37.10
12060;DHT22;6091;51.432;6.880;2023-03-24T01:59:47;23.70;37.20
12060;DHT22;6091;51.432;6.880;2023-03-24T02:02:17;23.70;37.10
12060;DHT22;6091;51.432;6.880;2023-03-24T02:04:50;23.70;37.10
12060;DHT22;6091;51.432;6.880;2023-03-24T02:07:32;23.70;37.10
12060;DHT22;6091;51.432;6.880;2023-03-24T02:10:04;23.70;37.20
12060;DHT22;6091;51.432;6.880;2023-03-24T02:12:33;23.70;37.20
12060;DHT22;6091;51.432;6.880;2023-03-24T02:15:02;23.70;37.10
12060;DHT22;6091;51.432;6.880;2023-03-24T02:17:46;23.70;37.10
12060;DHT22;6091;51.432;6.880;2023-03-24T02:20:48;23.60;37.10
12060;DHT22;6091;51.432;6.880;2023-03-24T02:26:38;23.60;37.10
12060;DHT22;6091;51.432;6.880;2023-03-24T02:32:11;23.70;37.20
12060;DHT22;6091;51.432;6.880;2023-03-24T02:35:24;23.70;37.20
12060;DHT22;6091;51.432;6.880;2023-03-24T02:44:02;23.60;37.10
12060;DHT22;6091;51.432;6.880;2023-03-24T02:46:43;23.60;37.10
12060;DHT22;6091;51.432;6.880;2023-03-24T02:49:31;23.60;37.10
12060;DHT22;6091;51.432;6.880;2023-03-24T02:52:48;23.60;37.20
12060;DHT22;6091;51.432;6.880;2023-03-24T02:55:52;23.60;37.20
12060;DHT22;6091;51.432;6.880;2023-03-24T03:01:42;23.60;37.20
12060;DHT22;6091;51.432;6.880;2023-03-24T03:04:33;23.60;37.20
12060;DHT22;6091;51.432;6.880;2023-03-24T03:07:06;23.60;37.10
12060;DHT22;6091;51.432;6.880;2023-03-24T03:09:40;23.60;37.10
12060;DHT22;6091;51.432;6.880;2023-03-24T03:12:14;23.60;37.20
12060;DHT22;6091;51.432;6.880;2023-03-24T03:14:48;23.60;37.20
12060;DHT22;6091;51.432;6.880;2023-03-24T03:17:25;23.60;37.20
12060;DHT22;6091;51.432;6.880;2023-03-24T03:20:03;23.60;37.20
12060;DHT22;6091;51.432;6.880;2023-03-24T03:22:44;23.60;37.30
12060;DHT22;6091;51.432;6.880;2023-03-24T03:25:20;23.60;37.30
12060;DHT22;6091;51.432;6.880;2023-03-24T03:27:53;23.60;37.20
12060;DHT22;6091;51.432;6.880;2023-03-24T03:30:34;23.60;37.20
12060;DHT22;6091;51.432;6.880;2023-03-24T03:33:13;23.60;37.30
12060;DHT22;6091;51.432;6.880;2023-03-24T03:36:01;23.60;37.20
12060;DHT22;6091;51.432;6.880;2023-03-24T03:38:57;23.60;37.20
12060;DHT22;6091;51.432;6.880;2023-03-24T03:41:46;23.60;37.20
12060;DHT22;6091;51.432;6.880;2023-03-24T03:44:14;23.50;37.10
12060;DHT22;6091;51.432;6.880;2023-03-24T03:46:42;23.60;37.20
12060;DHT22;6091;51.432;6.880;2023-03-24T03:49:09;23.50;37.20
12060;DHT22;6091;51.432;6.880;2023-03-24T03:51:36;23.60;37.20
12060;DHT22;6091;51.432;6.880;2023-03-24T03:54:06;23.50;37.20
12060;DHT22;6091;51.432;6.880;2023-03-24T03:56:37;23.50;37.20
12060;DHT22;6091;51.432;6.880;2023-03-24T03:59:06;23.50;37.20
12060;DHT22;6091;51.432;6.880;2023-03-24T04:01:35;23.50;37.20
12060;DHT22;6091;51.432;6.880;2023-03-24T04:18:29;23.50;37.20
12060;DHT22;6091;51.432;6.880;2023-03-24T04:24:01;23.50;37.20
12060;DHT22;6091;51.432;6.880;2023-03-24T04:27:04;23.50;37.30
12060;DHT22;6091;51.432;6.880;2023-03-24T04:33:03;23.60;37.40
12060;DHT22;6091;51.432;6.880;2023-03-24T04:35:53;23.50;37.30
12060;DHT22;6091;51.432;6.880;2023-03-24T04:38:33;23.50;37.30
12060;DHT22;6091;51.432;6.880;2023-03-24T04:41:04;23.50;37.20
12060;DHT22;6091;51.432;6.880;2023-03-24T04:43:33;23.50;37.30
12060;DHT22;6091;51.432;6.880;2023-03-24T04:46:04;23.50;37.30
12060;DHT22;6091;51.432;6.880;2023-03-24T04:48:34;23.40;37.30
12060;DHT22;6091;51.432;6.880;2023-03-24T04:51:02;23.50;37.30
12060;DHT22;6091;51.432;6.880;2023-03-24T04:53:30;23.50;37.40
12060;DHT22;6091;51.432;6.880;2023-03-24T04:56:15;23.40;37.30
12060;DHT22;6091;51.432;6.880;2023-03-24T04:59:03;23.50;37.40
12060;DHT22;6091;51.432;6.880;2023-03-24T05:01:35;23.40;37.20
12060;DHT22;6091;51.432;6.880;2023-03-24T05:04:04;23.50;37.40
12060;DHT22;6091;51.432;6.880;2023-03-24T05:06:31;23.40;37.30
12060;DHT22;6091;51.432;6.880;2023-03-24T05:08:59;23.40;37.30
12060;DHT22;6091;51.432;6.880;2023-03-24T05:11:28;23.40;37.30
12060;DHT22;6091;51.432;6.880;2023-03-24T05:13:58;23.40;37.30
12060;DHT22;6091;51.432;6.880;2023-03-24T05:16:25;23.50;37.40
12060;DHT22;6091;51.432;6.880;2023-03-24T05:18:55;23.40;37.40
12060;DHT22;6091;51.432;6.880;2023-03-24T05:21:22;23.40;37.40
12060;DHT22;6091;51.432;6.880;2023-03-24T05:23:49;23.40;37.30
12060;DHT22;6091;51.432;6.880;2023-03-24T05:26:16;23.40;37.30
12060;DHT22;6091;51.432;6.880;2023-03-24T05:28:44;23.40;37.30
12060;DHT22;6091;51.432;6.880;2023-03-24T05:31:11;23.40;37.30
12060;DHT22;6091;51.432;6.880;2023-03-24T05:33:38;23.40;37.30
12060;DHT22;6091;51.432;6.880;2023-03-24T05:36:06;23.40;37.40
12060;DHT22;6091;51.432;6.880;2023-03-24T05:38:33;23.40;37.40
12060;DHT22;6091;51.432;6.880;2023-03-24T05:41:01;23.40;37.40
12060;DHT22;6091;51.432;6.880;2023-03-24T05:43:28;23.40;37.40
12060;DHT22;6091;51.432;6.880;2023-03-24T05:45:55;23.40;37.50
12060;DHT22;6091;51.432;6.880;2023-03-24T05:48:23;23.40;37.40
12060;DHT22;6091;51.432;6.880;2023-03-24T05:50:51;23.40;37.40
12060;DHT22;6091;51.432;6.880;2023-03-24T05:53:19;23.40;37.40
12060;DHT22;6091;51.432;6.880;2023-03-24T05:55:46;23.40;37.40
12060;DHT22;6091;51.432;6.880;2023-03-24T05:58:13;23.30;37.30
12060;DHT22;6091;51.432;6.880;2023-03-24T06:00:41;23.40;38.00
12060;DHT22;6091;51.432;6.880;2023-03-24T06:03:08;23.40;37.40
12060;DHT22;6091;51.432;6.880;2023-03-24T06:05:35;23.40;37.40
12060;DHT22;6091;51.432;6.880;2023-03-24T06:08:02;23.30;37.30
12060;DHT22;6091;51.432;6.880;2023-03-24T06:10:30;23.40;38.00
12060;DHT22;6091;51.432;6.880;2023-03-24T06:12:57;23.40;37.50
12060;DHT22;6091;51.432;6.880;2023-03-24T06:15:25;23.30;37.40
12060;DHT22;6091;51.432;6.880;2023-03-24T06:17:54;23.30;37.30
12060;DHT22;6091;51.432;6.880;2023-03-24T06:20:21;23.30;37.40
12060;DHT22;6091;51.432;6.880;2023-03-24T06:22:48;23.30;37.40
12060;DHT22;6091;51.432;6.880;2023-03-24T06:25:16;23.30;37.40
12060;DHT22;6091;51.432;6.880;2023-03-24T06:27:46;23.30;37.50
12060;DHT22;6091;51.432;6.880;2023-03-24T06:30:18;23.30;37.40
12060;DHT22;6091;51.432;6.880;2023-03-24T06:32:46;23.30;37.40
12060;DHT22;6091;51.432;6.880;2023-03-24T06:35:14;23.30;37.60
12060;DHT22;6091;51.432;6.880;2023-03-24T06:37:43;23.30;37.60
12060;DHT22;6091;51.432;6.880;2023-03-24T06:40:11;23.40;37.70
12060;DHT22;6091;51.432;6.880;2023-03-24T06:42:41;23.30;37.60
12060;DHT22;6091;51.432;6.880;2023-03-24T06:45:09;23.40;37.90
12060;DHT22;6091;51.432;6.880;2023-03-24T06:47:36;23.40;37.90
12060;DHT22;6091;51.432;6.880;2023-03-24T06:50:04;23.50;38.00
12060;DHT22;6091;51.432;6.880;2023-03-24T06:52:33;23.60;38.20
12060;DHT22;6091;51.432;6.880;2023-03-24T06:55:02;23.60;38.20
12060;DHT22;6091;51.432;6.880;2023-03-24T06:57:30;23.70;38.30
12060;DHT22;6091;51.432;6.880;2023-03-24T06:59:57;23.80;38.40
12060;DHT22;6091;51.432;6.880;2023-03-24T07:02:24;23.50;38.00
12060;DHT22;6091;51.432;6.880;2023-03-24T07:05:00;24.00;38.40
12060;DHT22;6091;51.432;6.880;2023-03-24T07:07:32;24.10;38.40
12060;DHT22;6091;51.432;6.880;2023-03-24T07:10:07;24.30;38.50
12060;DHT22;6091;51.432;6.880;2023-03-24T07:12:34;24.40;38.50
12060;DHT22;6091;51.432;6.880;2023-03-24T07:15:02;24.50;38.50
12060;DHT22;6091;51.432;6.880;2023-03-24T07:17:30;24.50;38.40
12060;DHT22;6091;51.432;6.880;2023-03-24T07:19:57;24.70;38.50
12060;DHT22;6091;51.432;6.880;2023-03-24T07:22:24;24.70;38.40
12060;DHT22;6091;51.432;6.880;2023-03-24T07:24:52;24.80;38.40
12060;DHT22;6091;51.432;6.880;2023-03-24T07:27:20;24.90;38.40
12060;DHT22;6091;51.432;6.880;2023-03-24T07:29:48;25.00;38.40
12060;DHT22;6091;51.432;6.880;2023-03-24T07:32:15;25.10;38.40
12060;DHT22;6091;51.432;6.880;2023-03-24T07:34:46;25.20;38.40
12060;DHT22;6091;51.432;6.880;2023-03-24T07:37:16;25.20;38.30
12060;DHT22;6091;51.432;6.880;2023-03-24T07:39:43;25.30;38.30
12060;DHT22;6091;51.432;6.880;2023-03-24T07:42:10;25.30;38.20
12060;DHT22;6091;51.432;6.880;2023-03-24T07:44:38;25.40;37.30
12060;DHT22;6091;51.432;6.880;2023-03-24T07:47:07;25.40;36.40
12060;DHT22;6091;51.432;6.880;2023-03-24T07:49:34;25.40;35.60
12060;DHT22;6091;51.432;6.880;2023-03-24T07:52:02;25.20;35.40
12060;DHT22;6091;51.432;6.880;2023-03-24T07:54:32;24.90;34.70
12060;DHT22;6091;51.432;6.880;2023-03-24T07:57:00;24.80;35.20
12060;DHT22;6091;51.432;6.880;2023-03-24T07:59:30;24.70;34.60
12060;DHT22;6091;51.432;6.880;2023-03-24T08:02:04;24.50;33.90
12060;DHT22;6091;51.432;6.880;2023-03-24T08:04:31;24.40;34.50
12060;DHT22;6091;51.432;6.880;2023-03-24T08:06:59;24.20;34.40
12060;DHT22;6091;51.432;6.880;2023-03-24T08:09:26;24.00;34.40
12060;DHT22;6091;51.432;6.880;2023-03-24T08:11:55;23.90;35.20
12060;DHT22;6091;51.432;6.880;2023-03-24T08:14:24;23.80;35.60
12060;DHT22;6091;51.432;6.880;2023-03-24T08:16:51;23.90;36.10
12060;DHT22;6091;51.432;6.880;2023-03-24T08:19:19;23.90;36.80
12060;DHT22;6091;51.432;6.880;2023-03-24T08:21:46;23.90;36.70
12060;DHT22;6091;51.432;6.880;2023-03-24T08:24:13;24.00;36.90
12060;DHT22;6091;51.432;6.880;2023-03-24T08:26:40;24.20;37.20
12060;DHT22;6091;51.432;6.880;2023-03-24T08:29:11;24.30;37.30
12060;DHT22;6091;51.432;6.880;2023-03-24T08:31:38;24.40;37.20
12060;DHT22;6091;51.432;6.880;2023-03-24T08:34:05;24.50;37.20
12060;DHT22;6091;51.432;6.880;2023-03-24T08:36:32;24.70;37.40
12060;DHT22;6091;51.432;6.880;2023-03-24T08:38:59;24.80;37.40
12060;DHT22;6091;51.432;6.880;2023-03-24T08:41:28;24.90;37.30
12060;DHT22;6091;51.432;6.880;2023-03-24T08:44:02;25.00;37.30
12060;DHT22;6091;51.432;6.880;2023-03-24T08:46:33;25.10;37.30
12060;DHT22;6091;51.432;6.880;2023-03-24T08:49:00;25.20;37.30
12060;DHT22;6091;51.432;6.880;2023-03-24T08:51:28;25.30;37.20
12060;DHT22;6091;51.432;6.880;2023-03-24T08:53:59;25.30;37.10
12060;DHT22;6091;51.432;6.880;2023-03-24T08:56:27;25.40;37.10
12060;DHT22;6091;51.432;6.880;2023-03-24T08:58:54;25.50;37.00
12060;DHT22;6091;51.432;6.880;2023-03-24T09:01:25;25.50;36.90
12060;DHT22;6091;51.432;6.880;2023-03-24T09:03:53;25.60;36.90
12060;DHT22;6091;51.432;6.880;2023-03-24T09:06:20;25.60;36.90
12060;DHT22;6091;51.432;6.880;2023-03-24T09:08:47;25.70;36.90
12060;DHT22;6091;51.432;6.880;2023-03-24T09:11:19;25.80;36.90
12060;DHT22;6091;51.432;6.880;2023-03-24T09:13:48;25.80;36.80
12060;DHT22;6091;51.432;6.880;2023-03-24T09:16:15;25.80;36.80
12060;DHT22;6091;51.432;6.880;2023-03-24T09:18:43;25.90;36.80
12060;DHT22;6091;51.432;6.880;2023-03-24T09:21:10;25.90;36.70
12060;DHT22;6091;51.432;6.880;2023-03-24T09:23:44;26.00;36.70
12060;DHT22;6091;51.432;6.880;2023-03-24T09:26:11;26.00;36.50
12060;DHT22;6091;51.432;6.880;2023-03-24T09:28:38;26.00;36.50
12060;DHT22;6091;51.432;6.880;2023-03-24T09:31:05;26.10;36.50
12060;DHT22;6091;51.432;6.880;2023-03-24T09:33:36;26.10;36.50
12060;DHT22;6091;51.432;6.880;2023-03-24T09:36:04;26.20;36.50
12060;DHT22;6091;51.432;6.880;2023-03-24T09:38:34;26.20;36.40
12060;DHT22;6091;51.432;6.880;2023-03-24T09:41:02;26.20;36.30
12060;DHT22;6091;51.432;6.880;2023-03-24T09:43:39;26.20;36.40
12060;DHT22;6091;51.432;6.880;2023-03-24T09:46:33;26.20;36.20
12060;DHT22;6091;51.432;6.880;2023-03-24T09:49:04;26.20;36.10
12060;DHT22;6091;51.432;6.880;2023-03-24T09:51:39;26.20;36.20
12060;DHT22;6091;51.432;6.880;2023-03-24T09:54:30;26.20;36.20
12060;DHT22;6091;51.432;6.880;2023-03-24T09:57:35;26.30;36.10
12060;DHT22;6091;51.432;6.880;2023-03-24T10:00:24;26.30;36.10
12060;DHT22;6091;51.432;6.880;2023-03-24T10:03:19;26.30;36.00
12060;DHT22;6091;51.432;6.880;2023-03-24T10:05:55;26.30;36.00
12060;DHT22;6091;51.432;6.880;2023-03-24T10:08:41;26.30;36.10
12060;DHT22;6091;51.432;6.880;2023-03-24T10:26:02;26.40;36.00
12060;DHT22;6091;51.432;6.880;2023-03-24T10:28:58;26.40;36.10
12060;DHT22;6091;51.432;6.880;2023-03-24T10:31:40;26.40;36.10
12060;DHT22;6091;51.432;6.880;2023-03-24T10:34:10;26.40;36.10
12060;DHT22;6091;51.432;6.880;2023-03-24T10:36:39;26.50;36.70
12060;DHT22;6091;51.432;6.880;2023-03-24T10:39:13;26.50;36.10
12060;DHT22;6091;51.432;6.880;2023-03-24T10:41:50;26.50;36.00
12060;DHT22;6091;51.432;6.880;2023-03-24T10:44:22;26.50;36.10
12060;DHT22;6091;51.432;6.880;2023-03-24T10:46:54;26.60;36.10
12060;DHT22;6091;51.432;6.880;2023-03-24T10:49:23;26.50;36.00
12060;DHT22;6091;51.432;6.880;2023-03-24T10:51:53;26.50;36.00
12060;DHT22;6091;51.432;6.880;2023-03-24T10:54:29;26.60;36.10
12060;DHT22;6091;51.432;6.880;2023-03-24T11:05:14;26.70;36.00
12060;DHT22;6091;51.432;6.880;2023-03-24T11:07:47;26.70;35.90
12060;DHT22;6091;51.432;6.880;2023-03-24T11:10:18;26.70;35.90
12060;DHT22;6091;51.432;6.880;2023-03-24T11:15:26;26.80;35.80
12060;DHT22;6091;51.432;6.880;2023-03-24T11:20:38;26.90;36.00
12060;DHT22;6091;51.432;6.880;2023-03-24T11:23:39;26.90;35.70
12060;DHT22;6091;51.432;6.880;2023-03-24T11:26:22;27.10;35.70
12060;DHT22;6091;51.432;6.880;2023-03-24T11:29:00;27.20;35.70
12060;DHT22;6091;51.432;6.880;2023-03-24T11:31:31;27.10;35.70
12060;DHT22;6091;51.432;6.880;2023-03-24T11:34:14;27.30;35.90
12060;DHT22;6091;51.432;6.880;2023-03-24T11:36:55;27.40;35.70
12060;DHT22;6091;51.432;6.880;2023-03-24T11:39:29;27.50;35.80
12060;DHT22;6091;51.432;6.880;2023-03-24T11:44:44;27.80;35.60
12060;DHT22;6091;51.432;6.880;2023-03-24T11:50:16;28.20;35.30
12060;DHT22;6091;51.432;6.880;2023-03-24T11:55:34;28.40;34.90
12060;DHT22;6091;51.432;6.880;2023-03-24T12:30:06;28.40;34.30
12060;DHT22;6091;51.432;6.880;2023-03-24T12:33:22;28.30;34.20
12060;DHT22;6091;51.432;6.880;2023-03-24T12:39:09;28.20;34.20
12060;DHT22;6091;51.432;6.880;2023-03-24T12:56:48;27.90;34.80
12060;DHT22;6091;51.432;6.880;2023-03-24T12:59:12;27.90;34.30
12060;DHT22;6091;51.432;6.880;2023-03-24T13:04:59;27.80;34.20
12060;DHT22;6091;51.432;6.880;2023-03-24T13:07:34;27.40;34.10
12060;DHT22;6091;51.432;6.880;2023-03-24T13:10:20;27.70;34.40
12060;DHT22;6091;51.432;6.880;2023-03-24T13:13:42;27.70;34.30
12060;DHT22;6091;51.432;6.880;2023-03-24T13:16:04;27.70;34.30
12060;DHT22;6091;51.432;6.880;2023-03-24T13:18:45;27.70;34.30
12060;DHT22;6091;51.432;6.880;2023-03-24T13:21:22;27.60;34.30
12060;DHT22;6091;51.432;6.880;2023-03-24T13:24:10;27.60;34.30
12060;DHT22;6091;51.432;6.880;2023-03-24T13:38:07;27.30;34.30
12060;DHT22;6091;51.432;6.880;2023-03-24T13:40:40;27.20;34.30
12060;DHT22;6091;51.432;6.880;2023-03-24T13:43:10;27.20;34.40
12060;DHT22;6091;51.432;6.880;2023-03-24T13:45:44;27.20;34.50
12060;DHT22;6091;51.432;6.880;2023-03-24T13:48:30;27.10;34.40
12060;DHT22;6091;51.432;6.880;2023-03-24T13:54:04;27.00;34.50
12060;DHT22;6091;51.432;6.880;2023-03-24T14:00:15;27.10;34.70
12060;DHT22;6091;51.432;6.880;2023-03-24T14:02:47;27.10;34.70
12060;DHT22;6091;51.432;6.880;2023-03-24T14:10:48;27.20;35.60
12060;DHT22;6091;51.432;6.880;2023-03-24T14:13:19;27.20;35.40
12060;DHT22;6091;51.432;6.880;2023-03-24T14:23:40;27.30;34.50
12060;DHT22;6091;51.432;6.880;2023-03-24T14:28:51;27.30;34.70
12060;DHT22;6091;51.432;6.880;2023-03-24T14:31:22;27.40;35.00
12060;DHT22;6091;51.432;6.880;2023-03-24T14:36:28;27.50;34.90
12060;DHT22;6091;51.432;6.880;2023-03-24T14:41:58;27.60;34.50
12060;DHT22;6091;51.432;6.880;2023-03-24T14:50:01;27.60;34.40
12060;DHT22;6091;51.432;6.880;2023-03-24T14:52:59;27.50;34.40
12060;DHT22;6091;51.432;6.880;2023-03-24T14:55:32;27.40;34.40
12060;DHT22;6091;51.432;6.880;2023-03-24T14:58:05;27.40;34.70
12060;DHT22;6091;51.432;6.880;2023-03-24T15:00:47;27.50;34.90
12060;DHT22;6091;51.432;6.880;2023-03-24T15:06:27;27.80;34.80
12060;DHT22;6091;51.432;6.880;2023-03-24T15:08:57;27.80;35.10
12060;DHT22;6091;51.432;6.880;2023-03-24T15:11:38;27.90;34.90
12060;DHT22;6091;51.432;6.880;2023-03-24T15:14:25;28.00;34.60
12060;DHT22;6091;51.432;6.880;2023-03-24T15:17:04;28.00;34.40
12060;DHT22;6091;51.432;6.880;2023-03-24T15:19:40;28.00;34.30
12060;DHT22;6091;51.432;6.880;2023-03-24T15:22:11;28.00;34.30
12060;DHT22;6091;51.432;6.880;2023-03-24T15:24:45;28.00;34.20
12060;DHT22;6091;51.432;6.880;2023-03-24T15:27:26;27.90;34.10
12060;DHT22;6091;51.432;6.880;2023-03-24T15:29:57;27.90;34.20
12060;DHT22;6091;51.432;6.880;2023-03-24T15:32:27;27.70;34.10
12060;DHT22;6091;51.432;6.880;2023-03-24T15:35:01;27.70;34.10
12060;DHT22;6091;51.432;6.880;2023-03-24T15:37:39;27.60;34.10
12060;DHT22;6091;51.432;6.880;2023-03-24T15:42:58;27.50;34.20
12060;DHT22;6091;51.432;6.880;2023-03-24T15:45:43;27.40;34.20
12060;DHT22;6091;51.432;6.880;2023-03-24T15:48:32;27.30;34.20
12060;DHT22;6091;51.432;6.880;2023-03-24T15:51:04;27.20;34.20
12060;DHT22;6091;51.432;6.880;2023-03-24T15:53:44;27.20;34.20
12060;DHT22;6091;51.432;6.880;2023-03-24T16:01:32;27.00;34.40
12060;DHT22;6091;51.432;6.880;2023-03-24T16:04:09;26.90;34.40
12060;DHT22;6091;51.432;6.880;2023-03-24T16:06:44;26.90;34.50
12060;DHT22;6091;51.432;6.880;2023-03-24T16:09:20;26.90;34.50
12060;DHT22;6091;51.432;6.880;2023-03-24T16:11:52;26.90;34.50
12060;DHT22;6091;51.432;6.880;2023-03-24T16:14:24;26.90;34.60
12060;DHT22;6091;51.432;6.880;2023-03-24T16:16:55;26.80;34.60
12060;DHT22;6091;51.432;6.880;2023-03-24T16:19:25;26.80;34.60
12060;DHT22;6091;51.432;6.880;2023-03-24T16:21:52;26.80;34.60
12060;DHT22;6091;51.432;6.880;2023-03-24T16:24:21;26.70;34.50
12060;DHT22;6091;51.432;6.880;2023-03-24T16:26:48;26.70;34.60
12060;DHT22;6091;51.432;6.880;2023-03-24T16:31:49;26.60;34.60
12060;DHT22;6091;51.432;6.880;2023-03-24T16:34:20;26.70;34.70
12060;DHT22;6091;51.432;6.880;2023-03-24T16:36:52;26.60;34.70
12060;DHT22;6091;51.432;6.880;2023-03-24T16:39:27;26.70;34.80
12060;DHT22;6091;51.432;6.880;2023-03-24T16:41:55;26.60;34.80
12060;DHT22;6091;51.432;6.880;2023-03-24T16:44:23;26.60;34.80
12060;DHT22;6091;51.432;6.880;2023-03-24T16:46:53;26.60;34.80
12060;DHT22;6091;51.432;6.880;2023-03-24T16:49:22;26.70;34.90
12060;DHT22;6091;51.432;6.880;2023-03-24T16:51:50;26.70;34.90
12060;DHT22;6091;51.432;6.880;2023-03-24T16:54:21;26.70;35.00
12060;DHT22;6091;51.432;6.880;2023-03-24T16:56:48;26.70;35.00
12060;DHT22;6091;51.432;6.880;2023-03-24T16:59:15;26.60;34.80
12060;DHT22;6091;51.432;6.880;2023-03-24T17:01:46;26.60;34.80
12060;DHT22;6091;51.432;6.880;2023-03-24T17:04:16;26.60;34.80
12060;DHT22;6091;51.432;6.880;2023-03-24T17:06:47;26.60;34.80
12060;DHT22;6091;51.432;6.880;2023-03-24T17:09:18;26.60;34.80
12060;DHT22;6091;51.432;6.880;2023-03-24T17:11:55;26.60;34.80
12060;DHT22;6091;51.432;6.880;2023-03-24T17:14:24;26.60;34.80
12060;DHT22;6091;51.432;6.880;2023-03-24T17:16:51;26.60;34.80
12060;DHT22;6091;51.432;6.880;2023-03-24T17:19:21;26.50;34.70
12060;DHT22;6091;51.432;6.880;2023-03-24T17:22:00;26.50;34.80
12060;DHT22;6091;51.432;6.880;2023-03-24T17:24:32;26.50;35.00
12060;DHT22;6091;51.432;6.880;2023-03-24T17:27:02;26.50;34.90
12060;DHT22;6091;51.432;6.880;2023-03-24T17:29:29;26.40;34.90
12060;DHT22;6091;51.432;6.880;2023-03-24T17:31:57;26.40;35.00
12060;DHT22;6091;51.432;6.880;2023-03-24T17:34:24;26.30;35.00
12060;DHT22;6091;51.432;6.880;2023-03-24T17:36:51;26.30;35.10
12060;DHT22;6091;51.432;6.880;2023-03-24T17:39:19;26.20;35.10
12060;DHT22;6091;51.432;6.880;2023-03-24T17:41:47;26.30;35.20
12060;DHT22;6091;51.432;6.880;2023-03-24T17:44:14;26.20;35.20
12060;DHT22;6091;51.432;6.880;2023-03-24T17:46:42;26.20;35.40
12060;DHT22;6091;51.432;6.880;2023-03-24T17:49:09;26.10;35.30
12060;DHT22;6091;51.432;6.880;2023-03-24T17:51:36;26.10;35.40
12060;DHT22;6091;51.432;6.880;2023-03-24T17:54:04;26.00;35.50
12060;DHT22;6091;51.432;6.880;2023-03-24T17:56:31;26.00;35.50
12060;DHT22;6091;51.432;6.880;2023-03-24T17:58:58;26.00;35.50
12060;DHT22;6091;51.432;6.880;2023-03-24T18:01:25;26.00;35.60
12060;DHT22;6091;51.432;6.880;2023-03-24T18:03:56;25.90;35.60
12060;DHT22;6091;51.432;6.880;2023-03-24T18:06:23;25.90;35.60
12060;DHT22;6091;51.432;6.880;2023-03-24T18:08:53;25.90;35.70
12060;DHT22;6091;51.432;6.880;2023-03-24T18:11:20;25.80;35.70
12060;DHT22;6091;51.432;6.880;2023-03-24T18:13:47;25.80;35.80
12060;DHT22;6091;51.432;6.880;2023-03-24T18:16:14;25.80;35.80
12060;DHT22;6091;51.432;6.880;2023-03-24T18:18:48;25.80;35.80
12060;DHT22;6091;51.432;6.880;2023-03-24T18:21:17;25.80;35.90
12060;DHT22;6091;51.432;6.880;2023-03-24T18:23:44;25.80;36.00
12060;DHT22;6091;51.432;6.880;2023-03-24T18:26:14;25.70;35.90
12060;DHT22;6091;51.432;6.880;2023-03-24T18:28:42;25.70;36.00
12060;DHT22;6091;51.432;6.880;2023-03-24T18:31:14;25.60;35.90
12060;DHT22;6091;51.432;6.880;2023-03-24T18:33:45;25.60;36.00
12060;DHT22;6091;51.432;6.880;2023-03-24T18:36:16;25.60;36.00
12060;DHT22;6091;51.432;6.880;2023-03-24T18:39:00;25.60;36.10
12060;DHT22;6091;51.432;6.880;2023-03-24T18:41:30;25.60;36.20
12060;DHT22;6091;51.432;6.880;2023-03-24T18:43:58;25.60;36.10
12060;DHT22;6091;51.432;6.880;2023-03-24T18:46:25;25.50;36.10
12060;DHT22;6091;51.432;6.880;2023-03-24T18:48:53;25.50;36.10
12060;DHT22;6091;51.432;6.880;2023-03-24T18:51:21;25.40;36.10
12060;DHT22;6091;51.432;6.880;2023-03-24T18:53:49;25.50;36.10
12060;DHT22;6091;51.432;6.880;2023-03-24T18:56:18;25.40;36.10
12060;DHT22;6091;51.432;6.880;2023-03-24T18:58:46;25.40;36.20
12060;DHT22;6091;51.432;6.880;2023-03-24T19:01:16;25.40;36.10
12060;DHT22;6091;51.432;6.880;2023-03-24T19:03:49;25.40;36.20
12060;DHT22;6091;51.432;6.880;2023-03-24T19:06:18;25.30;36.20
12060;DHT22;6091;51.432;6.880;2023-03-24T19:08:49;25.30;36.20
12060;DHT22;6091;51.432;6.880;2023-03-24T19:11:17;25.30;36.30
12060;DHT22;6091;51.432;6.880;2023-03-24T19:13:45;25.20;36.20
12060;DHT22;6091;51.432;6.880;2023-03-24T19:16:16;25.20;36.20
12060;DHT22;6091;51.432;6.880;2023-03-24T19:18:45;25.20;36.20
12060;DHT22;6091;51.432;6.880;2023-03-24T19:21:14;25.20;36.30
12060;DHT22;6091;51.432;6.880;2023-03-24T19:23:43;25.20;36.30
12060;DHT22;6091;51.432;6.880;2023-03-24T19:26:12;25.10;36.20